Time;durP1;ratioP1;P1;durP2;ratioP2;P2;SDS_P1;SDS_P2;PMS_P1;PMS_P2;Temp;Humidity;BMP_temperature;BMP_pressure;BME280_temperature;BME280_humidity;BME280_pressure;Samples;Min_cycle;Max_cycle;Signal;HPM_P1;HPM_P2
2023/04/12 00:02:18;;;;;;;5.97;2.77;;;;;;;1.11;100.00;95891.09;5070392;28;20432;-76
2023/04/12 00:04:54;;;;;;;5.13;3.70;;;;;;;1.07;100.00;95873.69;5075070;28;20424;-76
2023/04/12 00:07:24;;;;;;;3.47;3.10;;;;;;;1.27;100.00;95898.72;5061339;28;20531;-76
2023/04/12 00:09:51;;;;;;;5.70;2.77;;;;;;;1.04;100.00;95866.44;5061777;28;20417;-75
2023/04/12 00:12:19;;;;;;;2.97;2.60;;;;;;;1.34;100.00;95899.97;5074740;28;20423;-75
2023/04/12 00:14:46;;;;;;;2.73;2.33;;;;;;;0.94;100.00;95843.13;5040284;28;20450;-75
2023/04/12 00:17:13;;;;;;;3.33;2.10;;;;;;;0.77;100.00;95852.13;5047717;28;20461;-75
2023/04/12 00:19:43;;;;;;;3.20;2.27;;;;;;;0.03;100.00;95751.94;5052787;28;20899;-75
2023/04/12 00:22:10;;;;;;;3.47;3.10;;;;;;;0.34;100.00;95791.41;5074560;28;20523;-76
2023/04/12 00:24:39;;;;;;;5.77;4.30;;;;;;;0.85;100.00;95884.59;5074665;28;20431;-75
2023/04/12 00:27:06;;;;;;;5.60;3.90;;;;;;;0.13;100.00;95829.78;5046899;28;20436;-76
2023/04/12 00:29:34;;;;;;;3.63;3.33;;;;;;;0.35;100.00;95844.19;5043225;28;20446;-75
2023/04/12 00:32:02;;;;;;;4.53;3.30;;;;;;;0.31;100.00;95825.00;5062560;28;20444;-75
2023/04/12 00:34:29;;;;;;;6.30;2.53;;;;;;;0.25;100.00;95832.81;5067732;28;20452;-76
2023/04/12 00:36:56;;;;;;;4.07;2.97;;;;;;;0.55;100.00;95844.03;5048609;28;20472;-75
2023/04/12 00:39:23;;;;;;;3.30;3.00;;;;;;;0.81;100.00;95873.97;5042803;28;20432;-76
2023/04/12 00:41:49;;;;;;;3.07;2.50;;;;;;;0.58;100.00;95831.25;5056888;28;20440;-75
2023/04/12 00:44:17;;;;;;;4.00;2.77;;;;;;;0.58;100.00;95839.03;5043534;28;20444;-76
2023/04/12 00:46:45;;;;;;;4.80;3.37;;;;;;;0.76;100.00;95853.16;5065325;28;20454;-76
2023/04/12 00:49:12;;;;;;;3.60;3.30;;;;;;;0.62;100.00;95835.88;5049975;28;20985;-76
2023/04/12 00:51:39;;;;;;;8.30;3.53;;;;;;;0.14;100.00;95765.63;5065359;28;20424;-75
2023/04/12 00:54:07;;;;;;;3.13;2.63;;;;;;;0.94;100.00;95849.09;5059631;28;20546;-76
2023/04/12 00:56:34;;;;;;;4.37;3.17;;;;;;;0.48;100.00;95791.53;5064391;28;20433;-76
2023/04/12 00:59:01;;;;;;;3.73;3.43;;;;;;;0.78;100.00;95843.25;5058340;28;20877;-75
2023/04/12 01:01:27;;;;;;;4.50;3.30;;;;;;;0.77;100.00;95836.50;5086897;28;20415;-76
2023/04/12 01:03:59;;;;;;;7.00;4.27;;;;;;;0.91;100.00;95847.03;5083630;28;20474;-77
2023/04/12 01:06:43;;;;;;;11.03;5.07;;;;;;;0.91;100.00;95838.47;5085437;28;20458;-80
2023/04/12 01:09:30;;;;;;;8.03;4.60;;;;;;;0.84;100.00;95831.78;5078372;28;20839;-76
2023/04/12 01:12:24;;;;;;;13.43;7.90;;;;;;;0.69;100.00;95805.91;5074262;28;20409;-76
2023/04/12 01:15:05;;;;;;;13.33;5.77;;;;;;;0.76;100.00;95834.19;5043648;28;20440;-76
2023/04/12 01:17:36;;;;;;;9.73;5.80;;;;;;;0.69;100.00;95826.72;5064893;28;20459;-76
2023/04/12 01:20:15;;;;;;;5.23;4.20;;;;;;;0.13;100.00;95764.03;5069239;28;20818;-76
2023/04/12 01:22:58;;;;;;;5.20;3.80;;;;;;;0.83;100.00;95832.81;5049404;28;20476;-76
2023/04/12 01:25:46;;;;;;;5.00;3.90;;;;;;;0.92;100.00;95832.19;5084784;28;20439;-76
2023/04/12 01:28:22;;;;;;;6.17;4.60;;;;;;;0.66;100.00;95826.47;5052350;28;20429;-76
2023/04/12 01:30:51;;;;;;;3.90;3.60;;;;;;;0.58;100.00;95781.06;5066146;28;20420;-76
2023/04/12 01:33:22;;;;;;;4.50;4.10;;;;;;;0.80;100.00;95801.34;5043814;28;20496;-76
2023/04/12 01:35:52;;;;;;;4.37;3.97;;;;;;;0.78;100.00;95793.84;5061005;28;20464;-76
2023/04/12 01:38:20;;;;;;;5.03;3.33;;;;;;;-0.23;100.00;95672.66;5067254;28;20509;-76
2023/04/12 01:40:47;;;;;;;4.87;4.40;;;;;;;0.60;100.00;95784.16;5056155;28;20831;-76
2023/04/12 01:43:14;;;;;;;4.17;3.80;;;;;;;0.16;100.00;95722.72;5062368;28;20484;-75
2023/04/12 01:45:41;;;;;;;4.83;3.07;;;;;;;0.24;100.00;95710.91;5065010;28;20598;-76
2023/04/12 01:48:10;;;;;;;3.90;3.60;;;;;;;0.87;100.00;95789.56;5061557;28;20452;-77
2023/04/12 01:50:40;;;;;;;3.57;2.90;;;;;;;0.85;100.00;95783.88;5041681;28;20486;-76
2023/04/12 01:53:17;;;;;;;5.03;4.23;;;;;;;0.88;100.00;95775.53;5072680;28;20448;-76
2023/04/12 01:55:45;;;;;;;7.43;3.97;;;;;;;0.22;100.00;95713.03;5068118;28;20486;-76
2023/04/12 01:58:16;;;;;;;3.93;3.63;;;;;;;0.16;100.00;95681.13;5063894;28;20466;-75
2023/04/12 02:00:44;;;;;;;3.97;3.63;;;;;;;0.82;100.00;95779.25;5055421;28;20473;-76
2023/04/12 02:03:13;;;;;;;4.20;3.23;;;;;;;0.27;100.00;95705.97;5064009;28;20452;-76
2023/04/12 02:05:41;;;;;;;3.90;2.70;;;;;;;0.72;100.00;95749.97;5050928;28;20472;-76
2023/04/12 02:08:07;;;;;;;4.30;3.13;;;;;;;0.71;100.00;95730.97;5058676;28;20483;-77
2023/04/12 02:10:36;;;;;;;3.40;3.10;;;;;;;0.43;100.00;95677.22;5085789;28;20420;-75
2023/04/12 02:13:03;;;;;;;12.70;5.40;;;;;;;0.65;100.00;95713.84;5065444;28;20471;-76
2023/04/12 02:15:30;;;;;;;7.57;3.87;;;;;;;0.82;100.00;95736.84;5080171;28;20472;-76
2023/04/12 02:17:58;;;;;;;5.00;3.47;;;;;;;0.98;100.00;95740.81;5040884;28;20487;-75
2023/04/12 02:20:26;;;;;;;4.03;2.93;;;;;;;1.01;100.00;95744.66;5049376;28;20459;-76
2023/04/12 02:22:53;;;;;;;3.97;3.00;;;;;;;0.92;100.00;95761.94;5067426;28;20455;-76
2023/04/12 02:25:20;;;;;;;5.97;3.97;;;;;;;0.46;100.00;95679.25;5043225;28;20432;-76
2023/04/12 02:27:47;;;;;;;4.13;3.73;;;;;;;0.19;100.00;95627.81;5049834;28;20945;-76
2023/04/12 02:30:14;;;;;;;7.20;3.77;;;;;;;-0.53;100.00;95544.69;5043653;28;20437;-76
2023/04/12 02:32:44;;;;;;;3.10;2.77;;;;;;;0.44;100.00;95692.53;5040774;28;20521;-75
2023/04/12 02:35:25;;;;;;;5.30;3.93;;;;;;;0.54;100.00;95723.63;5072546;28;20419;-74
2023/04/12 02:38:02;;;;;;;2.87;2.60;;;;;;;0.44;100.00;95676.94;5043923;28;20467;-74
2023/04/12 02:40:29;;;;;;;3.63;3.07;;;;;;;0.71;100.00;95707.56;5043654;28;20429;-74
2023/04/12 02:42:56;;;;;;;3.20;2.40;;;;;;;0.65;100.00;95677.44;5063387;28;20463;-75
2023/04/12 02:45:24;;;;;;;4.37;2.70;;;;;;;0.88;100.00;95709.69;5064857;28;20429;-74
2023/04/12 02:47:52;;;;;;;4.63;2.90;;;;;;;0.79;100.00;95693.91;5041370;28;20448;-74
2023/04/12 02:50:23;;;;;;;3.20;2.90;;;;;;;0.84;100.00;95685.28;5043438;28;20976;-75
2023/04/12 02:52:57;;;;;;;4.70;2.80;;;;;;;0.99;100.00;95695.50;5064652;28;20459;-74
2023/04/12 02:55:24;;;;;;;6.77;3.50;;;;;;;1.04;100.00;95695.44;5049668;28;20444;-75
2023/04/12 02:57:52;;;;;;;3.40;3.07;;;;;;;1.01;100.00;95692.63;5053558;28;20463;-74
2023/04/12 03:00:42;;;;;;;5.83;3.00;;;;;;;0.79;100.00;95664.53;5050126;28;20459;-74
2023/04/12 03:03:11;;;;;;;4.03;2.90;;;;;;;0.76;100.00;95665.09;5025757;28;20469;-74
2023/04/12 03:05:38;;;;;;;4.00;2.90;;;;;;;0.54;100.00;95632.59;5003447;28;20476;-75
2023/04/12 03:08:05;;;;;;;3.53;3.13;;;;;;;0.70;100.00;95645.41;5017735;28;20443;-74
2023/04/12 03:10:39;;;;;;;10.63;2.70;;;;;;;0.64;100.00;95607.50;5026464;28;20821;-74
2023/04/12 03:13:06;;;;;;;4.20;2.70;;;;;;;1.19;100.00;95678.81;5026046;28;20464;-74
2023/04/12 03:15:38;;;;;;;4.00;2.80;;;;;;;1.10;100.00;95657.09;5008150;28;20448;-75
2023/04/12 03:18:05;;;;;;;3.70;2.97;;;;;;;0.97;100.00;95624.75;5023403;28;20454;-75
2023/04/12 03:20:42;;;;;;;2.77;2.43;;;;;;;1.38;100.00;95676.22;5011194;28;20533;-74
2023/04/12 03:23:13;;;;;;;2.27;2.03;;;;;;;1.14;100.00;95639.88;5021724;28;21127;-74
2023/04/12 03:25:44;;;;;;;4.40;2.43;;;;;;;1.20;100.00;95641.31;5024807;28;20449;-73
2023/04/12 03:28:29;;;;;;;3.00;2.60;;;;;;;1.38;100.00;95665.81;5029349;28;20522;-75
2023/04/12 03:30:57;;;;;;;3.20;2.90;;;;;;;1.19;100.00;95631.97;5007277;28;20504;-73
2023/04/12 03:33:32;;;;;;;2.70;2.40;;;;;;;1.31;100.00;95653.13;5012245;28;20457;-74
2023/04/12 03:36:02;;;;;;;3.33;2.50;;;;;;;1.13;100.00;95620.88;5026655;28;20455;-74
2023/04/12 03:38:30;;;;;;;2.53;2.33;;;;;;;1.10;100.00;95626.66;5017373;28;20543;-74
2023/04/12 03:40:57;;;;;;;4.70;3.13;;;;;;;1.10;100.00;95618.06;5023633;28;20482;-74
2023/04/12 03:43:34;;;;;;;4.00;2.90;;;;;;;1.10;100.00;95608.44;5065521;28;20797;-73
2023/04/12 03:46:05;;;;;;;3.60;2.20;;;;;;;1.40;100.00;95642.88;5070422;28;20458;-75
2023/04/12 03:48:33;;;;;;;3.53;2.77;;;;;;;1.37;100.00;95651.25;5067045;28;20480;-74
2023/04/12 03:51:07;;;;;;;3.70;2.80;;;;;;;1.14;100.00;95637.25;5060457;28;20443;-74
2023/04/12 03:53:37;;;;;;;3.33;2.70;;;;;;;1.01;100.00;95607.50;5060423;28;20471;-74
2023/04/12 03:56:06;;;;;;;3.40;3.10;;;;;;;1.10;100.00;95625.88;5065718;28;20483;-74
2023/04/12 03:58:33;;;;;;;3.20;2.50;;;;;;;0.94;100.00;95598.53;5034730;28;20493;-74
2023/04/12 04:01:05;;;;;;;5.50;3.00;;;;;;;1.04;100.00;95600.97;5052371;28;20437;-74
2023/04/12 04:03:34;;;;;;;4.90;3.13;;;;;;;1.22;100.00;95620.25;5053929;28;21352;-74
2023/04/12 04:06:16;;;;;;;4.17;3.87;;;;;;;1.25;100.00;95622.28;5065951;28;20533;-74
2023/04/12 04:08:43;;;;;;;5.27;2.70;;;;;;;1.08;100.00;95613.16;5060455;28;20424;-74
2023/04/12 04:11:11;;;;;;;4.03;3.73;;;;;;;0.48;100.00;95532.31;5061581;28;21005;-74
2023/04/12 04:13:42;;;;;;;5.70;4.50;;;;;;;1.20;100.00;95628.31;5053439;28;20873;-74
2023/04/12 04:16:14;;;;;;;7.70;4.10;;;;;;;0.89;100.00;95566.31;5067950;28;20428;-75
2023/04/12 04:18:41;;;;;;;6.13;3.53;;;;;;;1.21;100.00;95606.44;5050122;28;20766;-74
2023/04/12 04:21:10;;;;;;;3.93;2.80;;;;;;;1.26;100.00;95606.38;5063352;28;20502;-74
2023/04/12 04:23:37;;;;;;;3.13;2.50;;;;;;;0.96;100.00;95549.56;5072214;28;20459;-74
2023/04/12 04:26:09;;;;;;;4.30;3.10;;;;;;;1.36;100.00;95616.63;5094367;28;20432;-77
2023/04/12 04:28:43;;;;;;;3.50;3.30;;;;;;;1.37;100.00;95625.22;5074827;28;20516;-75
2023/04/12 04:31:16;;;;;;;3.97;3.10;;;;;;;1.15;100.00;95584.91;5050642;28;20439;-74
2023/04/12 04:33:46;;;;;;;3.07;2.87;;;;;;;1.37;100.00;95612.19;5049789;28;20460;-75
2023/04/12 04:36:14;;;;;;;4.03;2.73;;;;;;;1.42;100.00;95605.06;5067546;28;20495;-75
2023/04/12 04:38:47;;;;;;;5.43;2.40;;;;;;;1.43;100.00;95617.00;5059036;28;21028;-75
2023/04/12 04:41:25;;;;;;;3.47;2.77;;;;;;;1.30;100.00;95596.16;5049297;28;20467;-74
2023/04/12 04:43:56;;;;;;;3.40;2.80;;;;;;;1.46;100.00;95605.25;5041611;28;20842;-74
2023/04/12 04:46:29;;;;;;;6.00;3.37;;;;;;;1.40;100.00;95585.56;5045701;28;20440;-75
2023/04/12 04:48:57;;;;;;;4.40;2.97;;;;;;;1.56;100.00;95591.28;5056283;28;20432;-74
2023/04/12 04:51:24;;;;;;;3.50;3.20;;;;;;;1.68;100.00;95602.03;5047693;28;20456;-75
2023/04/12 04:53:53;;;;;;;3.23;2.93;;;;;;;1.56;100.00;95593.91;5066039;28;20459;-75
2023/04/12 04:56:22;;;;;;;4.67;2.93;;;;;;;0.99;100.00;95487.31;5046060;28;20424;-75
2023/04/12 04:58:50;;;;;;;5.30;3.40;;;;;;;1.63;100.00;95602.91;5061056;28;20456;-75
2023/04/12 05:01:18;;;;;;;4.73;3.30;;;;;;;1.34;100.00;95587.50;5067708;28;20531;-74
2023/04/12 05:03:48;;;;;;;4.07;2.97;;;;;;;1.46;100.00;95593.00;5049106;28;20553;-74
2023/04/12 05:06:17;;;;;;;7.17;2.87;;;;;;;1.66;100.00;95620.56;5058209;28;20542;-74
2023/04/12 05:08:44;;;;;;;6.47;3.00;;;;;;;1.51;100.00;95592.16;5068052;28;20428;-75
2023/04/12 05:11:13;;;;;;;5.53;3.93;;;;;;;1.39;100.00;95592.63;5073493;28;20982;-75
2023/04/12 05:13:40;;;;;;;8.70;5.30;;;;;;;1.49;100.00;95615.13;5058804;28;20458;-74
2023/04/12 05:16:07;;;;;;;5.03;3.70;;;;;;;1.23;100.00;95575.69;5059992;28;20469;-74
2023/04/12 05:18:35;;;;;;;4.20;3.07;;;;;;;1.32;100.00;95579.19;5069603;28;20460;-75
2023/04/12 05:21:05;;;;;;;3.17;2.87;;;;;;;1.40;100.00;95594.16;5073261;28;20459;-74
2023/04/12 05:23:36;;;;;;;4.87;3.33;;;;;;;1.63;100.00;95613.31;5065128;28;20495;-74
2023/04/12 05:26:04;;;;;;;3.00;2.77;;;;;;;1.37;100.00;95573.91;5059170;28;20432;-75
2023/04/12 05:28:30;;;;;;;3.07;2.77;;;;;;;1.47;100.00;95578.94;5058770;28;20431;-75
2023/04/12 05:30:58;;;;;;;3.20;2.60;;;;;;;1.60;100.00;95615.69;5061216;28;20524;-75
2023/04/12 05:33:33;;;;;;;5.80;3.10;;;;;;;1.62;100.00;95611.00;5066712;28;21071;-75
2023/04/12 05:36:03;;;;;;;5.07;2.73;;;;;;;1.53;100.00;95597.09;5067584;28;20464;-75
2023/04/12 05:38:30;;;;;;;5.00;3.60;;;;;;;1.59;100.00;95601.13;5060877;28;20973;-75
2023/04/12 05:41:03;;;;;;;5.23;4.27;;;;;;;1.23;100.00;95548.91;5058136;28;20763;-75
2023/04/12 05:43:32;;;;;;;6.73;5.20;;;;;;;1.68;100.00;95594.22;5043276;28;20465;-75
2023/04/12 05:45:59;;;;;;;8.40;6.80;;;;;;;1.68;100.00;95589.78;5067409;28;20996;-75
2023/04/12 05:48:26;;;;;;;5.23;4.67;;;;;;;1.41;100.00;95519.41;5063757;28;20435;-75
2023/04/12 05:50:55;;;;;;;4.67;3.87;;;;;;;1.62;100.00;95559.69;5062204;28;20447;-75
2023/04/12 05:53:22;;;;;;;6.33;3.97;;;;;;;1.77;100.00;95582.84;5062511;28;20453;-74
2023/04/12 05:55:50;;;;;;;7.07;3.83;;;;;;;1.46;100.00;95520.09;5068621;28;20444;-75
2023/04/12 05:58:18;;;;;;;4.97;4.47;;;;;;;1.83;100.00;95556.69;5054857;28;20871;-74
2023/04/12 06:00:48;;;;;;;5.03;3.87;;;;;;;1.80;100.00;95529.38;5051141;28;20452;-75
2023/04/12 06:03:15;;;;;;;4.00;3.50;;;;;;;1.82;100.00;95535.06;5064247;28;20459;-75
2023/04/12 06:05:42;;;;;;;4.93;3.57;;;;;;;1.97;100.00;95547.81;5058002;28;20964;-76
2023/04/12 06:08:09;;;;;;;4.67;3.53;;;;;;;1.91;100.00;95528.13;5058365;28;20507;-76
2023/04/12 06:10:35;;;;;;;3.90;3.10;;;;;;;2.25;100.00;95561.59;5059078;28;20431;-76
2023/04/12 06:13:03;;;;;;;5.50;3.00;;;;;;;2.17;100.00;95528.41;5067852;28;20459;-75
2023/04/12 06:15:30;;;;;;;5.00;4.60;;;;;;;2.12;100.00;95523.28;5072450;28;20501;-76
2023/04/12 06:17:59;;;;;;;2.90;2.60;;;;;;;2.38;100.00;95529.50;5060447;28;20501;-76
2023/04/12 06:20:26;;;;;;;4.10;3.00;;;;;;;2.41;100.00;95515.13;5047029;28;20950;-75
2023/04/12 06:22:53;;;;;;;4.23;3.80;;;;;;;2.53;100.00;95525.03;5061984;28;20460;-76
2023/04/12 06:25:21;;;;;;;2.83;2.63;;;;;;;2.31;100.00;95491.88;5054155;28;20443;-75
2023/04/12 06:27:48;;;;;;;7.77;3.90;;;;;;;2.65;100.00;95523.44;5052740;28;20465;-76
2023/04/12 06:30:17;;;;;;;6.03;3.40;;;;;;;2.73;100.00;95506.31;5046350;28;20453;-75
2023/04/12 06:32:45;;;;;;;7.27;4.10;;;;;;;2.83;100.00;95505.31;5061276;28;20456;-76
2023/04/12 06:35:12;;;;;;;5.17;4.20;;;;;;;2.91;100.00;95488.94;5054116;28;20432;-76
2023/04/12 06:37:38;;;;;;;9.60;3.93;;;;;;;3.11;100.00;95498.91;5049686;28;20870;-76
2023/04/12 06:40:06;;;;;;;3.60;3.27;;;;;;;3.15;100.00;95478.94;5054968;28;21044;-77
2023/04/12 06:42:33;;;;;;;8.37;4.30;;;;;;;3.21;100.00;95487.44;5054059;28;20517;-75
2023/04/12 06:44:59;;;;;;;4.27;3.30;;;;;;;3.51;100.00;95512.00;5072356;28;20562;-77
2023/04/12 06:47:26;;;;;;;4.10;3.37;;;;;;;2.75;100.00;95396.41;5064166;28;20421;-77
2023/04/12 06:49:54;;;;;;;4.27;3.20;;;;;;;3.18;100.00;95460.06;5035469;28;20428;-75
2023/04/12 06:52:25;;;;;;;8.40;3.33;;;;;;;3.58;100.00;95482.81;5071874;28;20424;-76
2023/04/12 06:54:53;;;;;;;4.47;3.30;;;;;;;3.67;100.00;95501.94;5046181;28;20509;-75
2023/04/12 06:57:19;;;;;;;8.20;4.40;;;;;;;3.55;100.00;95471.13;5072219;28;20428;-75
2023/04/12 06:59:46;;;;;;;9.50;4.20;;;;;;;3.66;100.00;95498.56;5061778;28;20513;-75
2023/04/12 07:02:13;;;;;;;4.90;3.93;;;;;;;3.75;100.00;95496.75;5047356;28;20464;-77
2023/04/12 07:04:39;;;;;;;4.53;3.97;;;;;;;3.50;100.00;95466.81;5064642;28;20420;-76
2023/04/12 07:07:06;;;;;;;5.47;4.17;;;;;;;3.51;100.00;95436.25;5048146;28;20443;-76
2023/04/12 07:09:33;;;;;;;4.87;4.20;;;;;;;3.64;100.00;95451.03;5061494;28;20527;-76
2023/04/12 07:12:01;;;;;;;9.70;6.83;;;;;;;4.00;100.00;95495.25;5067591;28;20440;-76
2023/04/12 07:14:28;;;;;;;3.77;2.93;;;;;;;3.95;100.00;95466.66;5063512;28;20784;-76
2023/04/12 07:16:54;;;;;;;7.40;3.93;;;;;;;4.06;100.00;95467.13;5038100;28;20460;-75
2023/04/12 07:19:21;;;;;;;5.87;4.20;;;;;;;4.07;100.00;95453.75;5034536;28;20511;-77
2023/04/12 07:21:48;;;;;;;6.50;3.67;;;;;;;4.25;100.00;95483.31;5071411;28;20510;-76
2023/04/12 07:24:15;;;;;;;7.80;3.97;;;;;;;4.17;100.00;95468.38;5041305;28;20862;-77
2023/04/12 07:26:42;;;;;;;4.40;4.00;;;;;;;4.13;100.00;95451.75;5059818;28;20510;-76
2023/04/12 07:29:08;;;;;;;5.40;4.23;;;;;;;4.00;100.00;95432.50;5058075;28;20435;-76
2023/04/12 07:31:35;;;;;;;3.73;3.40;;;;;;;4.14;100.00;95424.53;5077477;28;20423;-76
2023/04/12 07:34:01;;;;;;;7.97;4.30;;;;;;;4.49;100.00;95446.22;5074950;28;20447;-76
2023/04/12 07:36:28;;;;;;;6.83;4.53;;;;;;;4.15;100.00;95377.16;5073846;28;20487;-76
2023/04/12 07:38:55;;;;;;;5.10;3.60;;;;;;;4.54;100.00;95440.84;5072251;28;20452;-76
2023/04/12 07:41:22;;;;;;;7.70;4.10;;;;;;;4.65;100.00;95436.81;5072688;28;20522;-76
2023/04/12 07:43:49;;;;;;;6.20;3.93;;;;;;;4.55;100.00;95402.38;5055039;28;20441;-77
2023/04/12 07:46:16;;;;;;;9.33;4.53;;;;;;;4.73;100.00;95427.44;5096837;28;20435;-77
2023/04/12 07:48:43;;;;;;;5.10;4.47;;;;;;;4.89;100.00;95431.09;5070818;28;20424;-76
2023/04/12 07:51:09;;;;;;;5.90;4.23;;;;;;;4.75;100.00;95420.78;5074081;28;20455;-77
2023/04/12 07:53:36;;;;;;;6.90;4.60;;;;;;;5.09;100.00;95442.00;5042340;28;20502;-76
2023/04/12 07:56:06;;;;;;;4.73;4.20;;;;;;;5.03;100.00;95431.66;5071206;28;20456;-76
2023/04/12 07:58:33;;;;;;;5.17;4.30;;;;;;;4.74;100.00;95387.84;5066643;28;20476;-76
2023/04/12 08:01:00;;;;;;;4.97;4.57;;;;;;;5.00;100.00;95434.16;5060381;28;20462;-77
2023/04/12 08:03:27;;;;;;;8.27;4.50;;;;;;;4.85;100.00;95383.03;5050432;28;20871;-77
2023/04/12 08:05:54;;;;;;;4.20;3.70;;;;;;;4.89;100.00;95385.81;5077459;28;20443;-77
2023/04/12 08:08:21;;;;;;;4.43;4.00;;;;;;;5.07;100.00;95417.94;5077402;28;20529;-77
2023/04/12 08:10:50;;;;;;;4.07;3.70;;;;;;;5.09;100.00;95426.28;5063629;28;20435;-77
2023/04/12 08:13:18;;;;;;;4.37;3.97;;;;;;;5.17;100.00;95421.00;5043170;28;20479;-77
2023/04/12 08:15:46;;;;;;;5.70;3.40;;;;;;;5.13;100.00;95398.38;5056705;28;20486;-77
2023/04/12 08:18:13;;;;;;;6.70;4.17;;;;;;;5.19;100.00;95407.59;5053364;28;21028;-77
2023/04/12 08:20:41;;;;;;;5.20;4.07;;;;;;;4.98;100.00;95381.31;5056619;28;21299;-77
2023/04/12 08:23:07;;;;;;;5.30;3.30;;;;;;;5.24;100.00;95413.44;5060612;28;20545;-77
2023/04/12 08:25:34;;;;;;;5.57;4.40;;;;;;;5.16;100.00;95389.88;5062535;28;20475;-76
2023/04/12 08:28:02;;;;;;;4.70;3.93;;;;;;;5.30;100.00;95385.97;5080418;28;20472;-77
2023/04/12 08:30:29;;;;;;;4.10;3.70;;;;;;;5.15;100.00;95376.00;5044345;28;20519;-77
2023/04/12 08:32:56;;;;;;;3.73;3.43;;;;;;;5.48;100.00;95404.25;5062943;28;20464;-77
2023/04/12 08:35:23;;;;;;;4.27;3.87;;;;;;;5.40;100.00;95402.44;5048221;28;20871;-77
2023/04/12 08:37:50;;;;;;;6.90;3.67;;;;;;;5.14;100.00;95358.75;5075050;28;20435;-77
2023/04/12 08:40:16;;;;;;;4.83;3.03;;;;;;;5.27;100.00;95357.78;5064688;28;20985;-77
2023/04/12 08:42:43;;;;;;;3.60;3.30;;;;;;;5.43;100.00;95354.59;5064261;28;20448;-77
2023/04/12 08:45:11;;;;;;;3.23;2.93;;;;;;;5.82;100.00;95400.66;5066588;28;20474;-77
2023/04/12 08:47:42;;;;;;;6.00;3.50;;;;;;;5.82;100.00;95405.91;5056362;28;20945;-77
2023/04/12 08:50:16;;;;;;;3.30;3.00;;;;;;;5.83;100.00;95399.56;5056412;28;20493;-77
2023/04/12 08:52:42;;;;;;;2.93;2.73;;;;;;;5.73;100.00;95374.47;5043669;28;20464;-76
2023/04/12 08:55:11;;;;;;;3.60;3.20;;;;;;;5.62;100.00;95368.09;5074178;28;20843;-76
2023/04/12 08:57:40;;;;;;;3.23;2.93;;;;;;;5.68;100.00;95392.25;5059831;28;20883;-77
2023/04/12 09:00:08;;;;;;;4.17;3.07;;;;;;;5.69;100.00;95375.44;5069098;28;20456;-77
2023/04/12 09:02:36;;;;;;;3.53;3.23;;;;;;;5.68;100.00;95369.44;5064132;28;20483;-77
2023/04/12 09:05:05;;;;;;;4.10;3.00;;;;;;;5.58;100.00;95370.56;5048658;28;20525;-77
2023/04/12 09:07:32;;;;;;;3.67;2.93;;;;;;;5.70;100.00;95359.38;5036160;28;20499;-77
2023/04/12 09:09:59;;;;;;;3.23;3.03;;;;;;;5.64;100.00;95364.06;5072421;28;20425;-77
2023/04/12 09:12:26;;;;;;;8.73;3.67;;;;;;;5.53;100.00;95341.16;5065908;28;20435;-77
2023/04/12 09:15:12;;;;;;;3.73;3.33;;;;;;;5.39;100.00;95333.50;5055123;28;20829;-77
2023/04/12 09:17:40;;;;;;;5.17;3.57;;;;;;;5.43;100.00;95304.81;5062946;28;20925;-77
2023/04/12 09:20:28;;;;;;;3.30;3.00;;;;;;;5.64;100.00;95342.31;5049376;28;20603;-77
2023/04/12 09:22:55;;;;;;;2.93;2.73;;;;;;;5.54;100.00;95314.59;5068601;28;20481;-77
2023/04/12 09:25:38;;;;;;;3.10;2.80;;;;;;;5.66;100.00;95336.75;5073717;28;20456;-78
2023/04/12 09:28:18;;;;;;;6.27;3.50;;;;;;;5.65;100.00;95338.59;5049566;28;20846;-77
2023/04/12 09:30:50;;;;;;;4.50;3.50;;;;;;;5.67;100.00;95318.06;5060777;28;20424;-77
2023/04/12 09:33:23;;;;;;;4.50;2.83;;;;;;;5.61;100.00;95324.59;5055655;28;20464;-77
2023/04/12 09:35:58;;;;;;;4.77;4.03;;;;;;;5.69;100.00;95315.91;5069167;28;20439;-77
2023/04/12 09:38:25;;;;;;;4.40;3.83;;;;;;;5.68;100.00;95313.59;5073288;28;20507;-77
2023/04/12 09:40:53;;;;;;;5.23;2.97;;;;;;;5.61;100.00;95308.88;5041916;28;20494;-77
2023/04/12 09:43:37;;;;;;;3.57;3.17;;;;;;;5.66;100.00;95290.31;5061278;28;21008;-78
2023/04/12 09:46:12;;;;;;;3.17;2.90;;;;;;;5.87;100.00;95306.03;5068218;28;20460;-78
2023/04/12 09:48:39;;;;;;;4.10;3.40;;;;;;;5.87;100.00;95298.16;5073187;28;20849;-77
2023/04/12 09:51:07;;;;;;;5.30;3.20;;;;;;;5.80;100.00;95288.19;5051176;28;20452;-78
2023/04/12 09:53:39;;;;;;;3.13;2.40;;;;;;;5.81;100.00;95271.38;5072596;28;20494;-77
2023/04/12 09:56:09;;;;;;;4.57;4.17;;;;;;;5.73;100.00;95245.97;5072773;28;20412;-77
2023/04/12 09:58:38;;;;;;;3.00;2.70;;;;;;;5.71;100.00;95263.91;5028490;28;20465;-77
2023/04/12 10:01:08;;;;;;;3.27;2.97;;;;;;;5.83;100.00;95258.69;5065081;28;20468;-77
2023/04/12 10:03:36;;;;;;;3.30;3.00;;;;;;;5.72;100.00;95241.06;5076115;28;20451;-77
2023/04/12 10:06:04;;;;;;;4.50;3.00;;;;;;;5.71;100.00;95235.06;5060961;28;20810;-77
2023/04/12 10:08:31;;;;;;;6.10;3.70;;;;;;;5.77;100.00;95233.78;5065035;28;20440;-77
2023/04/12 10:10:59;;;;;;;4.03;3.60;;;;;;;5.71;100.00;95221.94;5061740;28;20858;-76
2023/04/12 10:13:27;;;;;;;4.00;3.60;;;;;;;5.79;100.00;95233.44;5057954;28;20452;-78
2023/04/12 10:15:54;;;;;;;8.03;4.67;;;;;;;5.60;100.00;95192.72;5047622;28;20440;-78
2023/04/12 10:18:22;;;;;;;4.00;3.67;;;;;;;5.96;100.00;95227.31;5063844;28;20536;-77
2023/04/12 10:20:50;;;;;;;3.60;3.30;;;;;;;6.13;100.00;95238.41;5045679;28;20886;-78
2023/04/12 10:23:18;;;;;;;5.47;3.27;;;;;;;5.81;100.00;95189.31;5068630;28;20546;-78
2023/04/12 10:25:47;;;;;;;3.13;2.83;;;;;;;5.60;100.00;95153.41;5037249;28;20486;-78
2023/04/12 10:28:20;;;;;;;4.10;3.70;;;;;;;6.11;100.00;95232.72;5057049;28;20475;-77
2023/04/12 10:30:49;;;;;;;4.33;3.43;;;;;;;5.93;100.00;95205.13;5061391;28;20519;-77
2023/04/12 10:33:19;;;;;;;2.53;2.33;;;;;;;5.65;100.00;95165.56;5058173;28;20553;-77
2023/04/12 10:35:54;;;;;;;3.63;2.87;;;;;;;5.99;100.00;95229.28;5040556;28;20802;-77
2023/04/12 10:38:25;;;;;;;2.87;2.67;;;;;;;5.98;100.00;95212.00;5049036;28;20444;-78
2023/04/12 10:41:16;;;;;;;3.60;3.00;;;;;;;5.91;100.00;95192.34;5051136;28;20505;-76
2023/04/12 10:43:45;;;;;;;3.53;3.20;;;;;;;6.02;100.00;95218.94;5031493;28;20463;-75
2023/04/12 10:46:36;;;;;;;4.30;3.90;;;;;;;5.98;100.00;95209.38;5072377;28;20517;-75
2023/04/12 10:49:12;;;;;;;4.77;4.30;;;;;;;5.91;100.00;95181.84;5063078;28;20437;-75
2023/04/12 10:51:39;;;;;;;4.97;4.03;;;;;;;5.86;100.00;95170.75;5059858;28;20420;-75
2023/04/12 10:54:09;;;;;;;7.00;4.00;;;;;;;6.16;100.00;95213.38;5054815;28;20460;-75
2023/04/12 10:56:38;;;;;;;3.53;3.30;;;;;;;6.21;100.00;95202.66;5044819;28;20443;-75
2023/04/12 10:59:15;;;;;;;4.33;3.93;;;;;;;5.99;100.00;95172.34;5041637;28;20426;-75
2023/04/12 11:02:06;;;;;;;4.60;4.20;;;;;;;6.14;100.00;95210.28;5048010;28;20443;-75
2023/04/12 11:04:34;;;;;;;4.33;4.03;;;;;;;6.25;100.00;95192.28;5100218;28;20471;-74
2023/04/12 11:07:09;;;;;;;4.63;3.90;;;;;;;6.36;100.00;95196.78;5068065;28;20440;-75
2023/04/12 11:10:00;;;;;;;5.53;4.33;;;;;;;6.48;100.00;95181.03;5072409;28;20969;-74
2023/04/12 11:12:35;;;;;;;4.23;3.83;;;;;;;6.43;100.00;95173.41;5034434;28;20473;-74
2023/04/12 11:15:03;;;;;;;4.83;4.33;;;;;;;6.43;100.00;95178.66;5070048;28;20432;-74
2023/04/12 11:17:41;;;;;;;4.53;4.23;;;;;;;6.09;100.00;95092.44;5054284;28;20436;-74
2023/04/12 11:20:12;;;;;;;4.00;3.70;;;;;;;6.50;100.00;95154.47;5053943;28;20490;-74
2023/04/12 11:22:39;;;;;;;4.53;4.13;;;;;;;6.43;100.00;95123.53;5051509;28;20459;-74
2023/04/12 11:25:08;;;;;;;4.13;3.80;;;;;;;6.96;100.00;95161.09;5066140;28;20997;-74
2023/04/12 11:27:36;;;;;;;4.17;3.30;;;;;;;6.94;100.00;95134.38;5068804;28;20527;-74
2023/04/12 11:30:04;;;;;;;4.43;3.43;;;;;;;7.28;100.00;95151.50;5073955;28;20535;-74
2023/04/12 11:32:34;;;;;;;4.27;3.43;;;;;;;7.39;100.00;95147.31;5073733;28;20535;-74
2023/04/12 11:35:01;;;;;;;4.57;4.17;;;;;;;7.17;100.00;95120.75;5057399;28;20431;-75
2023/04/12 11:37:31;;;;;;;4.30;2.83;;;;;;;7.28;100.00;95129.69;5076722;28;20474;-74
2023/04/12 11:39:58;;;;;;;2.80;2.60;;;;;;;7.22;100.00;95116.03;5068104;28;20544;-74
2023/04/12 11:42:27;;;;;;;3.10;2.80;;;;;;;7.23;100.00;95108.91;5075465;28;20839;-74
2023/04/12 11:44:55;;;;;;;4.93;2.47;;;;;;;7.30;100.00;95096.72;5057983;28;20756;-75
2023/04/12 11:47:28;;;;;;;3.73;3.43;;;;;;;7.51;100.00;95127.31;5075402;28;20518;-74